Time;durP1;ratioP1;P1;durP2;ratioP2;P2;SDS_P1;SDS_P2;PMS_P1;PMS_P2;Temp;Humidity;BMP_temperature;BMP_pressure;BME280_temperature;BME280_humidity;BME280_pressure;Samples;Min_cycle;Max_cycle;Signal;HPM_P1;HPM_P2
2021/04/05 00:01:37;;;;;;;15.20;4.73;;;;;;;17.61;45.10;100336.38;5060165;28;20048;-70
2021/04/05 00:04:05;;;;;;;15.67;4.27;;;;;;;17.63;44.91;100333.22;5057011;28;20497;-69
2021/04/05 00:06:31;;;;;;;16.77;5.27;;;;;;;17.63;45.20;100333.22;5057431;28;20052;-69
2021/04/05 00:08:57;;;;;;;17.03;5.47;;;;;;;17.60;45.18;100340.34;5058799;28;20477;-68
2021/04/05 00:11:24;;;;;;;11.37;4.10;;;;;;;17.59;45.63;100344.34;5058095;28;20463;-69
2021/04/05 00:13:50;;;;;;;13.97;5.03;;;;;;;17.50;46.12;100341.53;5060257;28;20041;-72
2021/04/05 00:16:18;;;;;;;12.70;4.63;;;;;;;17.49;46.37;100339.84;5061635;28;20056;-70
2021/04/05 00:18:45;;;;;;;16.50;5.00;;;;;;;17.42;46.71;100338.72;5060439;28;20048;-72
2021/04/05 00:21:25;;;;;;;15.67;4.37;;;;;;;17.26;46.80;100325.09;5054408;28;20045;-69
2021/04/05 00:23:52;;;;;;;13.18;4.43;;;;;;;17.25;47.26;100323.41;5059482;28;20049;-73
2021/04/05 00:26:19;;;;;;;15.97;7.00;;;;;;;17.24;47.01;100324.59;5062416;28;20143;-72
2021/04/05 00:28:46;;;;;;;18.77;5.67;;;;;;;17.22;46.96;100324.06;5061683;28;20135;-72
2021/04/05 00:31:13;;;;;;;20.00;5.17;;;;;;;17.28;46.94;100328.41;5059463;28;20044;-73
2021/04/05 00:33:40;;;;;;;15.13;5.30;;;;;;;17.32;46.88;100333.38;5055958;28;20048;-73
2021/04/05 00:36:07;;;;;;;15.37;5.50;;;;;;;17.35;46.33;100319.44;5059601;28;20144;-72
2021/04/05 00:38:34;;;;;;;29.57;5.50;;;;;;;17.45;46.74;100338.03;5058438;28;20048;-73
2021/04/05 00:41:10;;;;;;;22.27;4.57;;;;;;;17.31;46.84;100326.91;5057131;28;20125;-73
2021/04/05 00:43:38;;;;;;;11.83;6.03;;;;;;;17.23;47.42;100336.19;5055347;28;20045;-72
2021/04/05 00:46:05;;;;;;;10.77;4.20;;;;;;;17.03;47.79;100321.59;5060300;28;20041;-72
2021/04/05 00:48:31;;;;;;;20.03;5.63;;;;;;;16.87;48.51;100322.38;5060934;28;20041;-73
2021/04/05 00:51:09;;;;;;;13.03;4.43;;;;;;;16.72;49.21;100334.94;5057325;28;20087;-74
2021/04/05 00:53:41;;;;;;;13.43;5.10;;;;;;;16.38;49.52;100287.72;5056344;28;20049;-73
2021/04/05 00:56:09;;;;;;;10.30;4.67;;;;;;;16.14;49.85;100277.69;5057179;28;20132;-72
2021/04/05 00:58:35;;;;;;;8.43;3.63;;;;;;;16.39;50.06;100317.56;5057096;28;20132;-73
2021/04/05 01:01:11;;;;;;;27.37;5.97;;;;;;;16.29;50.52;100336.41;5053023;28;20128;-73
2021/04/05 01:03:42;;;;;;;23.13;5.63;;;;;;;16.17;51.21;100336.19;5056417;28;20611;-73
2021/04/05 01:06:16;;;;;;;13.33;6.20;;;;;;;16.13;51.20;100329.53;5055638;28;20441;-72
2021/04/05 01:08:42;;;;;;;8.53;4.40;;;;;;;15.93;51.63;100322.47;5056582;28;20055;-69
2021/04/05 01:11:11;;;;;;;13.17;4.57;;;;;;;15.95;51.89;100333.41;5058486;28;20041;-72
2021/04/05 01:13:38;;;;;;;11.57;5.75;;;;;;;15.79;51.94;100318.88;5061225;28;20052;-73
2021/04/05 01:16:06;;;;;;;12.03;5.03;;;;;;;15.88;52.01;100329.06;5065810;28;20515;-72
2021/04/05 01:18:32;;;;;;;15.77;4.60;;;;;;;15.94;51.60;100334.56;5062765;28;20051;-70
2021/04/05 01:21:01;;;;;;;13.03;4.90;;;;;;;15.85;51.74;100326.88;5054554;28;20546;-71
2021/04/05 01:23:27;;;;;;;7.87;3.47;;;;;;;15.85;51.97;100340.13;5056164;28;20525;-70
2021/04/05 01:25:54;;;;;;;7.23;3.00;;;;;;;15.82;51.83;100338.78;5042821;28;20044;-70
2021/04/05 01:28:21;;;;;;;11.97;5.13;;;;;;;15.71;51.84;100320.50;5053939;28;20170;-69
2021/04/05 01:30:52;;;;;;;10.33;4.07;;;;;;;15.79;51.75;100339.41;5057664;28;20044;-71
2021/04/05 01:33:26;;;;;;;12.33;4.37;;;;;;;15.85;51.40;100337.31;5062749;28;20501;-70
2021/04/05 01:35:59;;;;;;;16.70;5.73;;;;;;;15.80;51.54;100341.09;5055392;28;20049;-70
2021/04/05 01:38:29;;;;;;;10.17;4.40;;;;;;;15.80;51.28;100340.28;5056558;28;20413;-71
2021/04/05 01:40:59;;;;;;;10.95;4.78;;;;;;;15.83;51.20;100342.47;5063714;28;20040;-71
2021/04/05 01:43:26;;;;;;;10.63;5.53;;;;;;;15.73;51.37;100339.91;5051506;28;20409;-69
2021/04/05 01:45:54;;;;;;;12.03;4.37;;;;;;;15.76;51.35;100337.28;5060896;28;20047;-74
2021/04/05 01:48:26;;;;;;;9.33;4.60;;;;;;;15.83;51.05;100334.84;5048708;28;20041;-74
2021/04/05 01:51:02;;;;;;;11.70;4.77;;;;;;;15.78;51.01;100329.31;5060035;28;20396;-73
2021/04/05 01:53:29;;;;;;;15.87;4.30;;;;;;;15.84;50.70;100330.84;5056949;28;20052;-71
2021/04/05 01:56:00;;;;;;;11.40;4.93;;;;;;;16.00;50.42;100334.13;5063163;28;20524;-71
2021/04/05 01:58:27;;;;;;;11.90;4.80;;;;;;;15.71;50.07;100280.25;5062019;28;20056;-72
2021/04/05 02:00:54;;;;;;;11.50;4.60;;;;;;;16.09;50.00;100328.50;5062730;28;20051;-71
2021/04/05 02:03:21;;;;;;;12.83;4.93;;;;;;;16.19;49.89;100336.69;5055807;28;20056;-71
2021/04/05 02:05:51;;;;;;;13.93;4.63;;;;;;;16.08;49.75;100318.41;5060664;28;20045;-70
2021/04/05 02:08:24;;;;;;;22.13;5.00;;;;;;;16.19;49.86;100335.84;5051967;28;20053;-72
2021/04/05 02:10:53;;;;;;;12.27;4.03;;;;;;;16.09;49.77;100315.25;5059932;28;20052;-69
2021/04/05 02:13:23;;;;;;;12.10;4.40;;;;;;;16.07;50.07;100325.19;5057041;28;20449;-69
2021/04/05 02:15:51;;;;;;;18.63;5.27;;;;;;;16.05;50.01;100321.88;5058639;28;20128;-69
2021/04/05 02:18:18;;;;;;;20.10;5.27;;;;;;;16.02;50.22;100334.59;5053555;28;20049;-68
2021/04/05 02:20:45;;;;;;;14.07;4.07;;;;;;;16.00;50.07;100328.47;5058810;28;20390;-68
2021/04/05 02:23:14;;;;;;;12.53;4.47;;;;;;;16.02;50.31;100333.78;5053199;28;20048;-72
2021/04/05 02:28:28;;;;;;;15.80;4.53;;;;;;;15.90;50.39;100333.53;5057123;28;20048;-72
2021/04/05 02:30:56;;;;;;;12.13;3.97;;;;;;;15.84;50.60;100333.66;5060999;28;20397;-72
2021/04/05 02:33:23;;;;;;;11.50;4.57;;;;;;;15.69;50.96;100321.97;5061359;28;20048;-72
2021/04/05 02:35:50;;;;;;;7.87;3.57;;;;;;;15.58;51.17;100327.00;5058597;28;20695;-71
2021/04/05 02:38:17;;;;;;;9.47;4.07;;;;;;;15.39;51.34;100319.56;5055864;28;20063;-75
2021/04/05 02:40:44;;;;;;;8.10;3.93;;;;;;;15.16;51.68;100303.81;5060156;28;20481;-75
2021/04/05 02:43:12;;;;;;;5.27;2.47;;;;;;;15.12;52.04;100325.28;5055792;28;20045;-73
2021/04/05 02:45:41;;;;;;;15.13;3.20;;;;;;;15.01;52.26;100321.03;5060453;28;20056;-71
2021/04/05 02:48:09;;;;;;;11.73;3.77;;;;;;;14.95;51.89;100305.44;5059042;28;20045;-70
2021/04/05 02:50:37;;;;;;;8.57;2.70;;;;;;;15.19;51.14;100322.03;5064384;28;20049;-72
2021/04/05 02:53:06;;;;;;;10.67;3.70;;;;;;;15.21;50.89;100316.91;5062887;28;20044;-69
2021/04/05 02:55:35;;;;;;;9.30;4.68;;;;;;;15.19;50.55;100302.34;5064190;28;20067;-72
2021/04/05 02:58:08;;;;;;;8.67;3.17;;;;;;;15.31;50.00;100300.63;5057940;28;20044;-70
2021/04/05 03:00:36;;;;;;;9.53;3.47;;;;;;;15.46;49.53;100305.06;5058421;28;20045;-73
2021/04/05 03:03:04;;;;;;;16.83;3.87;;;;;;;15.74;49.06;100324.66;5056666;28;20048;-69
2021/04/05 03:05:31;;;;;;;13.07;4.00;;;;;;;15.75;48.71;100313.06;5061744;28;20210;-69
2021/04/05 03:07:57;;;;;;;9.00;3.33;;;;;;;15.86;48.42;100317.28;5060477;28;20044;-69
2021/04/05 03:10:28;;;;;;;9.53;3.20;;;;;;;15.79;48.25;100310.44;5059045;28;20115;-69
2021/04/05 03:12:58;;;;;;;8.63;3.03;;;;;;;15.77;48.06;100307.97;5055667;28;20045;-69
2021/04/05 03:15:26;;;;;;;2.65;1.85;;;;;;;15.65;48.05;100304.84;5055003;28;20408;-67
2021/04/05 03:17:57;;;;;;;10.33;2.53;;;;;;;15.33;47.88;100281.44;5056929;28;22013;-69
2021/04/05 03:20:28;;;;;;;5.47;4.17;;;;;;;15.34;47.88;100287.91;5057008;28;20119;-68
2021/04/05 03:22:55;;;;;;;7.17;2.30;;;;;;;15.23;47.98;100287.31;5059333;28;20040;-71
2021/04/05 03:25:23;;;;;;;13.07;2.43;;;;;;;15.20;47.98;100287.97;5060296;28;20051;-68
2021/04/05 03:27:50;;;;;;;7.20;3.67;;;;;;;15.16;48.02;100301.81;5059168;28;20154;-68
2021/04/05 03:30:23;;;;;;;9.93;2.80;;;;;;;15.16;47.84;100301.81;5067579;28;20045;-70
2021/04/05 03:32:56;;;;;;;5.97;2.03;;;;;;;15.20;47.70;100296.41;5066002;28;20047;-70
2021/04/05 03:35:30;;;;;;;8.60;2.93;;;;;;;15.25;47.33;100301.91;5060329;28;20041;-67
2021/04/05 03:37:58;;;;;;;5.07;2.33;;;;;;;15.20;47.04;100276.72;5060639;28;20047;-76
2021/04/05 03:40:26;;;;;;;2.73;2.40;;;;;;;15.22;46.81;100285.69;5057225;28;20051;-78
2021/04/05 03:43:15;;;;;;;5.10;3.03;;;;;;;15.32;46.56;100299.50;5061553;28;20412;-80
2021/04/05 03:46:06;;;;;;;6.47;2.80;;;;;;;15.27;46.18;100293.97;5061973;28;20409;-71
2021/04/05 03:48:37;;;;;;;9.93;1.93;;;;;;;15.34;45.90;100299.16;5056977;28;20054;-70
2021/04/05 03:51:17;;;;;;;6.03;2.67;;;;;;;15.40;45.31;100289.44;5060558;28;20064;-70
2021/04/05 03:54:01;;;;;;;11.73;2.38;;;;;;;15.51;44.93;100304.09;5058682;28;20051;-72
2021/04/05 03:56:38;;;;;;;3.77;1.93;;;;;;;15.52;44.40;100308.56;5058389;28;20055;-76
2021/04/05 03:59:27;;;;;;;3.53;2.57;;;;;;;15.55;44.25;100299.47;5059274;28;20098;-74
2021/04/05 04:02:03;;;;;;;;;;;;;;;15.30;44.51;100303.78;5053257;28;20133;-74
2021/04/05 04:04:36;;;;;;;11.60;2.03;;;;;;;15.39;44.39;100297.06;5063326;28;20106;-73
2021/04/05 04:09:33;;;;;;;2.90;1.40;;;;;;;15.48;43.92;100297.13;5062716;28;20123;-71
2021/04/05 04:12:00;;;;;;;5.07;2.20;;;;;;;15.44;43.61;100293.28;5057674;28;20048;-70
2021/04/05 04:14:29;;;;;;;4.63;1.30;;;;;;;15.41;43.35;100289.13;5058565;28;20044;-67
2021/04/05 04:16:57;;;;;;;2.83;1.47;;;;;;;15.56;43.13;100301.16;5057204;28;20101;-70
2021/04/05 04:19:27;;;;;;;1.80;0.90;;;;;;;15.51;43.12;100295.66;5057836;28;20045;-74
2021/04/05 04:21:55;;;;;;;4.30;2.00;;;;;;;15.50;43.06;100296.81;5056246;28;20808;-69
2021/04/05 04:24:22;;;;;;;4.37;2.00;;;;;;;15.38;43.06;100272.91;5061818;28;20640;-68
2021/04/05 04:26:48;;;;;;;1.80;1.33;;;;;;;15.51;43.06;100302.09;5057078;28;20048;-67
2021/04/05 04:29:20;;;;;;;4.40;2.00;;;;;;;15.53;43.02;100310.25;5061994;28;20413;-70
2021/04/05 04:31:47;;;;;;;3.87;1.87;;;;;;;15.59;42.67;100306.16;5060432;28;20044;-72
2021/04/05 04:34:14;;;;;;;5.07;3.00;;;;;;;15.58;42.80;100304.47;5058844;28;20041;-70
2021/04/05 04:36:41;;;;;;;2.23;1.60;;;;;;;15.64;42.83;100325.72;5063635;28;20405;-68
2021/04/05 04:39:09;;;;;;;12.90;3.00;;;;;;;15.62;42.74;100322.38;5055890;28;20045;-70
2021/04/05 04:41:35;;;;;;;6.87;2.07;;;;;;;15.39;42.66;100280.19;5059955;28;20049;-68
2021/04/05 04:44:04;;;;;;;4.63;1.70;;;;;;;15.55;42.59;100314.38;5058358;28;20049;-71
2021/04/05 04:46:31;;;;;;;2.93;1.67;;;;;;;15.46;42.57;100313.50;5057847;28;20049;-72
2021/04/05 04:49:00;;;;;;;6.57;1.90;;;;;;;15.55;42.31;100313.56;5054150;28;20049;-71
2021/04/05 04:51:28;;;;;;;2.65;1.33;;;;;;;15.36;42.37;100294.06;5062153;28;20044;-69
2021/04/05 04:53:56;;;;;;;4.67;1.97;;;;;;;15.60;41.96;100319.06;5055914;28;20047;-69
2021/04/05 04:56:24;;;;;;;4.87;1.63;;;;;;;15.61;41.75;100320.72;5056551;28;20040;-74
2021/04/05 04:58:51;;;;;;;1.97;1.73;;;;;;;15.38;41.57;100272.03;5056358;28;20041;-73
2021/04/05 05:01:18;;;;;;;5.27;2.00;;;;;;;15.71;41.41;100314.03;5048531;28;20049;-72
2021/04/05 05:03:50;;;;;;;4.07;2.33;;;;;;;15.84;41.16;100308.34;5057295;28;20516;-73
2021/04/05 05:06:20;;;;;;;4.93;1.40;;;;;;;16.05;40.92;100335.94;5058265;28;20063;-73
2021/04/05 05:08:47;;;;;;;6.05;3.08;;;;;;;16.18;40.89;100332.22;5057654;28;20512;-73
2021/04/05 05:11:16;;;;;;;9.80;3.03;;;;;;;16.22;41.39;100335.22;5062424;28;20125;-73
2021/04/05 05:13:42;;;;;;;12.63;4.10;;;;;;;16.14;41.88;100334.03;5056687;28;20055;-72
2021/04/05 05:16:09;;;;;;;10.07;3.63;;;;;;;16.15;42.16;100344.13;5063259;28;20552;-72
2021/04/05 05:18:37;;;;;;;10.57;3.23;;;;;;;16.15;42.78;100340.47;5063197;28;20044;-72
2021/04/05 05:21:13;;;;;;;8.50;3.90;;;;;;;16.10;42.70;100330.16;5055759;28;20044;-72
2021/04/05 05:23:42;;;;;;;5.00;3.17;;;;;;;16.04;42.54;100328.66;5056626;28;20044;-74
2021/04/05 05:26:10;;;;;;;8.80;2.90;;;;;;;16.00;42.91;100333.25;5064060;28;20048;-73
2021/04/05 05:28:38;;;;;;;5.10;2.30;;;;;;;15.71;42.69;100295.16;5055375;28;20045;-73
2021/04/05 05:31:05;;;;;;;6.97;2.83;;;;;;;15.88;42.50;100326.25;5053587;28;20090;-72
2021/04/05 05:33:34;;;;;;;6.73;2.20;;;;;;;15.79;42.16;100316.06;5064784;28;22741;-70
2021/04/05 05:36:00;;;;;;;5.80;2.40;;;;;;;15.82;42.16;100335.97;5061755;28;20044;-76
2021/04/05 05:38:27;;;;;;;3.13;1.60;;;;;;;15.86;41.85;100327.69;5058522;28;20055;-70
2021/04/05 05:40:59;;;;;;;4.03;1.70;;;;;;;15.90;41.63;100333.53;5057842;28;20067;-71
2021/04/05 05:43:37;;;;;;;5.60;2.47;;;;;;;15.93;42.14;100338.50;5059506;28;20041;-75
2021/04/05 05:46:15;;;;;;;7.60;2.83;;;;;;;15.87;42.44;100340.66;5048513;28;20102;-70
2021/04/05 05:49:08;;;;;;;7.17;3.50;;;;;;;15.76;42.98;100340.09;5057231;28;20041;-71
2021/04/05 05:51:56;;;;;;;5.70;2.83;;;;;;;15.76;42.86;100345.72;5056611;28;20398;-67
2021/04/05 05:54:47;;;;;;;4.20;2.23;;;;;;;15.72;42.77;100353.13;5059039;28;20053;-67
2021/04/05 05:57:18;;;;;;;6.43;2.43;;;;;;;15.54;42.27;100320.34;5061131;28;20073;-67
2021/04/05 06:00:01;;;;;;;5.77;2.50;;;;;;;15.75;42.24;100344.03;5056247;28;20400;-67
2021/04/05 06:02:57;;;;;;;5.43;2.47;;;;;;;15.71;42.08;100356.25;5065688;28;20060;-68
2021/04/05 06:06:03;;;;;;;9.73;3.60;;;;;;;15.65;42.17;100355.53;5046045;28;23229;-66
2021/04/05 06:08:42;;;;;;;5.73;2.53;;;;;;;15.68;41.98;100360.53;5022048;28;20045;-74
2021/04/05 06:11:20;;;;;;;7.90;3.03;;;;;;;15.70;42.58;100366.69;5061995;28;20048;-66
2021/04/05 06:14:00;;;;;;;5.47;3.10;;;;;;;15.71;42.89;100373.97;5057307;28;20486;-71
2021/04/05 06:16:37;;;;;;;8.23;3.00;;;;;;;15.62;43.17;100371.09;5060049;28;20069;-71
2021/04/05 06:19:42;;;;;;;5.57;2.70;;;;;;;15.60;42.84;100372.56;5049570;28;21311;-70
2021/04/05 06:22:46;;;;;;;7.37;3.03;;;;;;;15.55;43.21;100381.09;5059532;28;20423;-70
2021/04/05 06:25:25;;;;;;;6.67;2.87;;;;;;;15.39;43.65;100384.28;5059666;28;20072;-68
2021/04/05 06:28:14;;;;;;;7.40;2.80;;;;;;;15.29;44.18;100386.50;5059968;28;20166;-68
2021/04/05 06:31:08;;;;;;;5.95;2.63;;;;;;;15.26;44.38;100387.97;5062888;28;20040;-69
2021/04/05 06:33:44;;;;;;;5.37;2.50;;;;;;;15.19;44.22;100381.94;5058692;28;20051;-69
2021/04/05 06:36:36;;;;;;;6.97;2.63;;;;;;;15.26;44.15;100382.34;5062861;28;20048;-71
2021/04/05 06:39:02;;;;;;;6.63;3.17;;;;;;;15.33;43.98;100399.63;5065342;28;20045;-70
2021/04/05 06:41:35;;;;;;;7.90;2.93;;;;;;;15.40;43.91;100400.00;5059935;28;20432;-69
2021/04/05 06:44:10;;;;;;;7.90;3.10;;;;;;;15.49;44.20;100391.66;5061283;28;20068;-70
2021/04/05 06:46:55;;;;;;;7.00;3.00;;;;;;;15.58;44.49;100395.38;5063598;28;20056;-69
2021/04/05 06:49:39;;;;;;;6.57;3.10;;;;;;;15.65;44.32;100395.75;5051392;28;20052;-70
2021/04/05 06:52:47;;;;;;;6.10;2.67;;;;;;;15.77;44.23;100402.84;5058713;28;20052;-70
2021/04/05 06:55:36;;;;;;;5.57;2.80;;;;;;;15.81;44.51;100407.53;5062211;28;20053;-70
2021/04/05 06:58:12;;;;;;;6.90;3.00;;;;;;;15.91;44.47;100411.25;5059625;28;20041;-70
2021/04/05 07:00:49;;;;;;;7.07;3.20;;;;;;;16.00;44.97;100414.94;5054244;28;20052;-71
2021/04/05 07:03:41;;;;;;;6.70;3.27;;;;;;;16.08;44.81;100403.75;5063339;28;20505;-69
2021/04/05 07:06:29;;;;;;;4.70;3.33;;;;;;;16.29;44.27;100408.84;5060801;28;20136;-70
2021/04/05 07:09:18;;;;;;;6.80;2.77;;;;;;;16.58;43.38;100405.50;5061254;28;20421;-69
2021/04/05 07:12:12;;;;;;;4.18;2.33;;;;;;;16.88;42.84;100411.47;5055160;28;20047;-69
2021/04/05 07:15:24;;;;;;;6.13;2.60;;;;;;;17.18;41.83;100412.56;5050842;28;20052;-68
2021/04/05 07:18:10;;;;;;;6.53;3.00;;;;;;;17.49;40.87;100413.25;4979905;28;20516;-69
2021/04/05 07:21:04;;;;;;;2.73;1.73;;;;;;;17.65;39.55;100398.66;4986764;28;20518;-68
2021/04/05 07:23:50;;;;;;;2.80;1.90;;;;;;;17.80;38.50;100405.84;5043220;28;20143;-69
2021/04/05 07:26:25;;;;;;;13.57;2.33;;;;;;;17.93;37.73;100416.13;5054623;28;20049;-68
2021/04/05 07:29:10;;;;;;;2.20;1.60;;;;;;;17.83;37.32;100376.94;5058288;28;20515;-67
2021/04/05 07:32:02;;;;;;;5.17;2.37;;;;;;;18.16;36.67;100416.78;5054002;28;20048;-69
2021/04/05 07:34:31;;;;;;;1.83;1.30;;;;;;;18.25;35.83;100409.09;5063032;28;20044;-69
2021/04/05 07:37:28;;;;;;;2.57;1.67;;;;;;;18.28;35.61;100404.78;5057514;28;20037;-69
2021/04/05 07:40:13;;;;;;;3.60;1.37;;;;;;;18.27;34.72;100417.25;5060453;28;20045;-68
2021/04/05 07:42:52;;;;;;;2.07;1.23;;;;;;;18.24;34.07;100399.78;5060924;28;20071;-68
2021/04/05 07:45:21;;;;;;;2.60;1.73;;;;;;;18.31;34.07;100410.59;5064457;28;20045;-68
2021/04/05 07:48:10;;;;;;;2.78;1.95;;;;;;;18.42;33.90;100405.41;5060538;28;20063;-67
2021/04/05 07:51:05;;;;;;;1.67;1.48;;;;;;;18.74;33.37;100412.50;5063297;28;20479;-69
2021/04/05 07:53:51;;;;;;;6.37;1.73;;;;;;;19.07;33.17;100428.78;5043935;28;20053;-69
2021/04/05 07:56:41;;;;;;;4.13;2.38;;;;;;;19.33;32.38;100406.00;5057167;28;20053;-68
2021/04/05 07:59:16;;;;;;;3.80;2.10;;;;;;;19.75;32.53;100411.72;5062141;28;20058;-69
2021/04/05 08:02:09;;;;;;;7.53;1.85;;;;;;;19.84;31.91;100392.66;5064655;28;20049;-67
2021/04/05 08:05:19;;;;;;;4.55;2.42;;;;;;;20.42;31.93;100409.75;5056771;28;20044;-69
2021/04/05 08:07:58;;;;;;;4.38;2.13;;;;;;;21.06;30.84;100415.66;5060050;28;20048;-68
2021/04/05 08:10:45;;;;;;;3.88;1.77;;;;;;;21.50;30.22;100418.72;5060808;28;20045;-69
2021/04/05 08:13:35;;;;;;;6.63;2.03;;;;;;;21.77;29.33;100413.44;5063449;28;20048;-69
2021/04/05 08:16:11;;;;;;;5.85;1.92;;;;;;;22.43;29.53;100415.00;5058196;28;20055;-68
2021/04/05 08:18:42;;;;;;;5.50;2.03;;;;;;;22.80;28.36;100412.69;5062156;28;20479;-68
2021/04/05 08:21:18;;;;;;;4.70;2.40;;;;;;;23.29;28.62;100417.22;5059212;28;20136;-68
2021/04/05 08:24:31;;;;;;;8.43;2.40;;;;;;;23.80;28.34;100406.63;5056033;28;20051;-67
2021/04/05 08:27:11;;;;;;;3.38;2.25;;;;;;;24.65;28.52;100423.88;4967623;28;20059;-68
2021/04/05 08:29:48;;;;;;;;;;;;;;;25.01;29.19;100421.63;4967158;28;20097;-68
2021/04/05 08:32:37;;;;;;;6.97;2.30;;;;;;;25.54;28.25;100421.72;5021954;28;19921;-68
2021/04/05 08:35:24;;;;;;;3.88;1.70;;;;;;;25.84;27.02;100420.91;5059208;28;20048;-69
2021/04/05 08:38:09;;;;;;;3.00;1.50;;;;;;;25.73;25.90;100435.88;5053064;28;20136;-69
2021/04/05 08:40:59;;;;;;;7.97;2.45;;;;;;;25.81;25.53;100436.81;5059874;28;20094;-69
2021/04/05 08:44:00;;;;;;;5.07;1.65;;;;;;;25.80;25.23;100428.63;5062186;28;20151;-68
2021/04/05 08:46:32;;;;;;;3.40;2.30;;;;;;;26.11;24.76;100431.09;5063896;28;20072;-68
2021/04/05 08:49:02;;;;;;;3.22;2.00;;;;;;;26.36;23.85;100430.56;5063679;28;20041;-68
2021/04/05 08:51:34;;;;;;;;;;;;;;;26.29;25.27;100427.63;5058149;28;20055;-68
2021/04/05 08:54:05;;;;;;;4.28;1.80;;;;;;;26.80;24.30;100433.53;5061696;28;19920;-70
2021/04/05 08:56:46;;;;;;;4.82;2.30;;;;;;;27.17;23.62;100432.66;5059705;28;20045;-68
2021/04/05 08:59:23;;;;;;;7.57;1.85;;;;;;;27.56;23.16;100414.94;5061223;28;20040;-70
2021/04/05 09:01:56;;;;;;;6.28;2.20;;;;;;;28.01;22.55;100419.31;5058278;28;20056;-68
2021/04/05 09:04:27;;;;;;;6.05;1.67;;;;;;;28.41;22.08;100436.72;5057471;28;20053;-68
2021/04/05 09:07:08;;;;;;;5.68;2.35;;;;;;;28.72;22.19;100440.94;5059031;28;20053;-68
2021/04/05 09:09:36;;;;;;;7.70;2.03;;;;;;;28.95;21.26;100452.03;5059711;28;20041;-68
2021/04/05 09:12:06;;;;;;;6.57;2.30;;;;;;;29.15;21.23;100429.50;5060823;28;20048;-68
2021/04/05 09:14:46;;;;;;;11.32;2.00;;;;;;;29.33;21.05;100447.56;5045191;28;20041;-68
2021/04/05 09:17:28;;;;;;;7.97;1.95;;;;;;;29.29;21.07;100452.50;5061231;28;20097;-68
2021/04/05 09:20:36;;;;;;;5.20;1.77;;;;;;;29.07;20.92;100448.00;5064232;28;20124;-69
2021/04/05 09:23:16;;;;;;;3.70;1.70;;;;;;;29.08;21.00;100452.50;5038680;28;20055;-67
2021/04/05 09:26:19;;;;;;;2.92;1.73;;;;;;;28.98;20.90;100452.03;5062659;28;20041;-69
2021/04/05 09:28:51;;;;;;;2.92;1.83;;;;;;;29.16;20.47;100452.09;5051791;28;20383;-70
2021/04/05 09:31:26;;;;;;;4.60;2.30;;;;;;;29.42;20.47;100447.16;5058556;28;20493;-69
2021/04/05 09:34:09;;;;;;;4.95;2.70;;;;;;;29.87;19.85;100459.03;5058956;28;20545;-69
2021/04/05 09:36:53;;;;;;;8.18;2.13;;;;;;;30.18;19.90;100460.19;5052098;28;20048;-68
2021/04/05 09:39:46;;;;;;;3.00;2.08;;;;;;;29.97;19.76;100438.84;5059196;28;20171;-68
2021/04/05 09:42:31;;;;;;;6.60;2.08;;;;;;;29.80;19.45;100464.81;5055522;28;20059;-67
2021/04/05 09:45:18;;;;;;;4.85;2.10;;;;;;;29.44;19.68;100454.16;5059740;28;20055;-66
2021/04/05 09:48:09;;;;;;;4.55;1.90;;;;;;;29.68;19.80;100452.50;5062683;28;20044;-67
2021/04/05 09:50:47;;;;;;;4.68;1.83;;;;;;;29.81;19.13;100467.25;5068990;28;20042;-66
2021/04/05 09:53:30;;;;;;;3.30;1.83;;;;;;;29.68;19.83;100452.50;5067169;28;20064;-67
2021/04/05 09:56:13;;;;;;;3.38;2.20;;;;;;;30.05;19.05;100453.22;5059466;28;20136;-72
2021/04/05 09:58:50;;;;;;;3.15;1.63;;;;;;;29.75;18.70;100463.19;5062330;28;20124;-73
2021/04/05 10:01:23;;;;;;;3.15;2.10;;;;;;;29.87;18.61;100459.03;5055599;28;20409;-72
2021/04/05 10:03:57;;;;;;;8.88;1.90;;;;;;;30.34;18.13;100451.91;5055637;28;20444;-74
2021/04/05 10:06:26;;;;;;;4.53;2.25;;;;;;;30.79;17.71;100449.22;5058516;28;20049;-74
2021/04/05 10:08:57;;;;;;;5.07;1.83;;;;;;;31.30;17.42;100458.31;5060765;28;20482;-72
2021/04/05 10:11:32;;;;;;;3.47;1.95;;;;;;;31.70;17.19;100459.63;5060890;28;20078;-72
2021/04/05 10:14:08;;;;;;;3.20;2.03;;;;;;;31.97;17.54;100459.78;5063095;28;20289;-71
2021/04/05 10:16:37;;;;;;;5.78;2.30;;;;;;;32.20;17.04;100453.28;5059772;28;20044;-73
2021/04/05 10:19:06;;;;;;;2.88;1.63;;;;;;;32.59;17.03;100456.97;5063715;28;20386;-71
2021/04/05 10:21:34;;;;;;;;;;;;;;;32.31;18.28;100456.06;5064451;28;20044;-72
2021/04/05 10:24:02;;;;;;;4.37;2.30;;;;;;;32.17;17.65;100462.84;5065205;28;19931;-73
2021/04/05 10:26:34;;;;;;;3.03;1.50;;;;;;;31.81;17.50;100460.31;5061378;28;20296;-76
2021/04/05 10:29:07;;;;;;;3.67;2.20;;;;;;;32.26;17.34;100460.22;5054820;28;20041;-76
2021/04/05 10:31:35;;;;;;;3.70;2.42;;;;;;;32.58;16.36;100452.41;5065197;28;20048;-77
2021/04/05 10:34:05;;;;;;;5.85;2.47;;;;;;;32.66;16.68;100449.00;5058420;28;20084;-75
2021/04/05 10:36:41;;;;;;;6.80;2.65;;;;;;;32.51;16.56;100456.22;5064128;28;20238;-75
2021/04/05 10:39:07;;;;;;;4.38;2.35;;;;;;;32.40;16.35;100453.44;5065054;28;20049;-76
2021/04/05 10:41:40;;;;;;;4.03;2.20;;;;;;;32.82;16.74;100447.53;5065768;28;20040;-75
2021/04/05 10:44:12;;;;;;;4.30;2.50;;;;;;;32.93;16.71;100440.34;5054777;28;20048;-74
2021/04/05 10:46:42;;;;;;;6.13;2.10;;;;;;;33.00;16.54;100445.22;5066941;28;20540;-74
2021/04/05 10:49:11;;;;;;;4.93;2.03;;;;;;;32.99;15.85;100434.88;5060541;28;20040;-74
2021/04/05 10:51:49;;;;;;;4.07;2.08;;;;;;;32.91;15.84;100433.34;5063317;28;20046;-76
2021/04/05 10:54:25;;;;;;;3.65;1.92;;;;;;;33.11;15.92;100437.19;5065500;28;20084;-75
2021/04/05 10:57:04;;;;;;;9.02;2.03;;;;;;;33.54;15.95;100435.63;5063523;28;20036;-73
2021/04/05 10:59:48;;;;;;;4.60;1.95;;;;;;;34.00;16.08;100440.56;5062681;28;20041;-74
2021/04/05 11:02:31;;;;;;;2.80;1.67;;;;;;;33.59;15.52;100438.84;5063901;28;20052;-74
2021/04/05 11:05:04;;;;;;;3.42;2.10;;;;;;;33.54;15.24;100430.69;5065702;28;20044;-73
2021/04/05 11:07:32;;;;;;;7.05;1.70;;;;;;;33.95;14.90;100441.06;5066587;28;20041;-74
2021/04/05 11:10:01;;;;;;;6.38;1.75;;;;;;;34.58;14.43;100423.63;5066965;28;20054;-74
2021/04/05 11:12:35;;;;;;;3.28;1.90;;;;;;;34.92;14.39;100419.50;5063838;28;20058;-74
2021/04/05 11:15:06;;;;;;;7.65;2.10;;;;;;;35.11;14.87;100433.16;5066388;28;20123;-73
2021/04/05 11:17:34;;;;;;;3.65;1.98;;;;;;;35.10;14.65;100434.41;5063282;28;20056;-74
2021/04/05 11:20:02;;;;;;;3.80;2.10;;;;;;;35.37;14.60;100430.44;5060771;28;20041;-72
2021/04/05 11:22:30;;;;;;;7.18;1.98;;;;;;;35.60;14.94;100427.34;5065607;28;20293;-73
2021/04/05 11:25:18;;;;;;;4.43;1.80;;;;;;;35.83;15.22;100426.31;5066863;28;20045;-74
2021/04/05 11:27:50;;;;;;;5.57;1.88;;;;;;;35.98;14.92;100432.50;5063598;28;20044;-72
2021/04/05 11:30:24;;;;;;;7.18;2.70;;;;;;;35.97;15.34;100410.53;5059402;28;20049;-71
2021/04/05 11:32:52;;;;;;;7.07;2.80;;;;;;;36.14;15.41;100442.47;5061541;28;20059;-71
2021/04/05 11:35:21;;;;;;;11.40;2.70;;;;;;;35.64;15.97;100421.44;5061487;28;20062;-70
2021/04/05 11:37:51;;;;;;;7.65;2.65;;;;;;;34.87;16.11;100428.75;5062569;28;20056;-74
2021/04/05 11:40:25;;;;;;;5.03;1.95;;;;;;;34.31;15.60;100431.66;5058825;28;20409;-64
2021/04/05 11:42:53;;;;;;;5.88;2.50;;;;;;;34.75;16.21;100432.38;5040126;28;20071;-65
2021/04/05 11:45:28;;;;;;;3.03;1.95;;;;;;;34.96;16.51;100413.63;5059666;28;20048;-64
2021/04/05 11:47:56;;;;;;;4.75;2.10;;;;;;;35.01;15.38;100422.63;5060535;28;20122;-66
2021/04/05 11:50:27;;;;;;;5.35;2.20;;;;;;;34.85;15.16;100414.69;5063748;28;20044;-68
2021/04/05 11:52:55;;;;;;;4.18;2.47;;;;;;;35.00;15.51;100429.66;5055169;28;20056;-71
2021/04/05 11:55:29;;;;;;;7.85;3.40;;;;;;;35.20;16.21;100425.91;5063518;28;20057;-66
2021/04/05 11:58:01;;;;;;;6.82;3.30;;;;;;;35.44;16.44;100404.09;5054100;28;20052;-66
2021/04/05 12:00:31;;;;;;;11.10;4.07;;;;;;;36.03;16.24;100428.25;5064338;28;20044;-66
2021/04/05 12:03:16;;;;;;;6.90;4.03;;;;;;;36.78;16.17;100420.97;5061315;28;20424;-71
2021/04/05 12:05:54;;;;;;;10.05;3.83;;;;;;;37.36;14.94;100419.91;5058023;28;20037;-68